sensor_id;sensor_type;location;lat;lon;timestamp;temperature;humidity
68556;HTU21D;55544;51.032;5.866;2023-10-13T00:01:34;19.55;85.37
68556;HTU21D;55544;51.032;5.866;2023-10-13T00:04:00;19.56;85.14
68556;HTU21D;55544;51.032;5.866;2023-10-13T00:06:27;19.51;85.33
68556;HTU21D;55544;51.032;5.866;2023-10-13T00:08:53;19.52;85.49
68556;HTU21D;55544;51.032;5.866;2023-10-13T00:11:18;19.52;0.00
68556;HTU21D;55544;51.032;5.866;2023-10-13T00:13:46;81.68;85.59
68556;HTU21D;55544;51.032;5.866;2023-10-13T00:16:20;19.54;85.49
68556;HTU21D;55544;51.032;5.866;2023-10-13T00:18:53;19.44;86.02
68556;HTU21D;55544;51.032;5.866;2023-10-13T00:21:25;19.45;86.03
68556;HTU21D;55544;51.032;5.866;2023-10-13T00:23:58;19.48;86.08
68556;HTU21D;55544;51.032;5.866;2023-10-13T00:26:29;19.55;85.89
68556;HTU21D;55544;51.032;5.866;2023-10-13T00:28:59;19.55;0.00
68556;HTU21D;55544;51.032;5.866;2023-10-13T00:31:39;0.00;85.93
68556;HTU21D;55544;51.032;5.866;2023-10-13T00:34:12;19.58;85.90
68556;HTU21D;55544;51.032;5.866;2023-10-13T00:36:53;19.60;85.76
68556;HTU21D;55544;51.032;5.866;2023-10-13T00:39:41;19.60;86.09
68556;HTU21D;55544;51.032;5.866;2023-10-13T00:42:14;19.62;86.01
68556;HTU21D;55544;51.032;5.866;2023-10-13T00:44:51;19.61;86.09
68556;HTU21D;55544;51.032;5.866;2023-10-13T00:47:21;19.62;86.03
68556;HTU21D;55544;51.032;5.866;2023-10-13T00:50:19;19.60;86.27
68556;HTU21D;55544;51.032;5.866;2023-10-13T00:52:48;19.63;86.44
68556;HTU21D;55544;51.032;5.866;2023-10-13T00:55:18;19.63;86.42
68556;HTU21D;55544;51.032;5.866;2023-10-13T00:57:54;19.65;86.37
68556;HTU21D;55544;51.032;5.866;2023-10-13T01:00:22;19.63;86.73
68556;HTU21D;55544;51.032;5.866;2023-10-13T01:02:54;19.63;86.54
68556;HTU21D;55544;51.032;5.866;2023-10-13T01:05:22;19.63;86.77
68556;HTU21D;55544;51.032;5.866;2023-10-13T01:07:49;19.61;86.90
68556;HTU21D;55544;51.032;5.866;2023-10-13T01:10:19;19.66;87.00
68556;HTU21D;55544;51.032;5.866;2023-10-13T01:12:46;19.63;87.18
68556;HTU21D;55544;51.032;5.866;2023-10-13T01:15:13;19.62;87.19
68556;HTU21D;55544;51.032;5.866;2023-10-13T01:17:46;19.63;87.07
68556;HTU21D;55544;51.032;5.866;2023-10-13T01:20:16;19.63;87.12
68556;HTU21D;55544;51.032;5.866;2023-10-13T01:22:53;19.62;87.03
68556;HTU21D;55544;51.032;5.866;2023-10-13T01:25:25;0.00;87.29
68556;HTU21D;55544;51.032;5.866;2023-10-13T01:27:55;19.63;87.40
68556;HTU21D;55544;51.032;5.866;2023-10-13T01:30:22;19.65;87.34
68556;HTU21D;55544;51.032;5.866;2023-10-13T01:32:49;19.60;87.29
68556;HTU21D;55544;51.032;5.866;2023-10-13T01:35:17;19.56;87.48
68556;HTU21D;55544;51.032;5.866;2023-10-13T01:38:01;19.57;87.87
68556;HTU21D;55544;51.032;5.866;2023-10-13T01:40:26;19.46;88.18
68556;HTU21D;55544;51.032;5.866;2023-10-13T01:42:54;19.51;88.32
68556;HTU21D;55544;51.032;5.866;2023-10-13T01:45:21;19.53;88.28
68556;HTU21D;55544;51.032;5.866;2023-10-13T01:47:47;19.58;88.02
68556;HTU21D;55544;51.032;5.866;2023-10-13T01:50:16;19.52;88.34
68556;HTU21D;55544;51.032;5.866;2023-10-13T01:52:47;19.50;88.42
68556;HTU21D;55544;51.032;5.866;2023-10-13T01:55:13;19.57;88.31
68556;HTU21D;55544;51.032;5.866;2023-10-13T01:57:42;19.59;87.92
68556;HTU21D;55544;51.032;5.866;2023-10-13T02:00:13;19.63;87.79
68556;HTU21D;55544;51.032;5.866;2023-10-13T02:02:45;19.62;87.80
68556;HTU21D;55544;51.032;5.866;2023-10-13T02:05:16;19.58;88.07
68556;HTU21D;55544;51.032;5.866;2023-10-13T02:07:43;19.54;88.25
68556;HTU21D;55544;51.032;5.866;2023-10-13T02:10:11;19.56;88.24
68556;HTU21D;55544;51.032;5.866;2023-10-13T02:12:38;19.53;88.44
68556;HTU21D;55544;51.032;5.866;2023-10-13T02:15:12;19.54;88.49
68556;HTU21D;55544;51.032;5.866;2023-10-13T02:17:47;19.52;88.50
68556;HTU21D;55544;51.032;5.866;2023-10-13T02:20:17;19.56;88.30
68556;HTU21D;55544;51.032;5.866;2023-10-13T02:22:49;19.56;88.51
68556;HTU21D;55544;51.032;5.866;2023-10-13T02:25:16;19.44;88.75
68556;HTU21D;55544;51.032;5.866;2023-10-13T02:27:45;19.50;88.70
68556;HTU21D;55544;51.032;5.866;2023-10-13T02:30:24;19.41;89.13
68556;HTU21D;55544;51.032;5.866;2023-10-13T02:32:50;19.39;89.10
68556;HTU21D;55544;51.032;5.866;2023-10-13T02:35:18;19.43;89.05
68556;HTU21D;55544;51.032;5.866;2023-10-13T02:37:56;19.42;89.31
68556;HTU21D;55544;51.032;5.866;2023-10-13T02:40:24;19.44;89.17
68556;HTU21D;55544;51.032;5.866;2023-10-13T02:42:50;19.46;89.10
68556;HTU21D;55544;51.032;5.866;2023-10-13T02:45:16;19.43;89.01
68556;HTU21D;55544;51.032;5.866;2023-10-13T02:47:43;19.42;89.02
68556;HTU21D;55544;51.032;5.866;2023-10-13T02:50:09;19.51;88.82
68556;HTU21D;55544;51.032;5.866;2023-10-13T02:52:38;0.00;88.97
68556;HTU21D;55544;51.032;5.866;2023-10-13T02:55:07;19.50;89.27
68556;HTU21D;55544;51.032;5.866;2023-10-13T02:57:39;19.54;89.05
68556;HTU21D;55544;51.032;5.866;2023-10-13T03:00:06;19.53;88.92
68556;HTU21D;55544;51.032;5.866;2023-10-13T03:02:38;19.56;88.63
68556;HTU21D;55544;51.032;5.866;2023-10-13T03:05:23;19.58;88.51
68556;HTU21D;55544;51.032;5.866;2023-10-13T03:07:49;19.68;88.26
68556;HTU21D;55544;51.032;5.866;2023-10-13T03:10:16;19.58;88.46
68556;HTU21D;55544;51.032;5.866;2023-10-13T03:12:44;19.63;88.30
68556;HTU21D;55544;51.032;5.866;2023-10-13T03:15:14;19.60;88.40
68556;HTU21D;55544;51.032;5.866;2023-10-13T03:17:43;19.65;88.22
68556;HTU21D;55544;51.032;5.866;2023-10-13T03:20:15;19.62;88.46
68556;HTU21D;55544;51.032;5.866;2023-10-13T03:22:48;19.68;88.30
68556;HTU21D;55544;51.032;5.866;2023-10-13T03:25:18;19.65;88.15
68556;HTU21D;55544;51.032;5.866;2023-10-13T03:27:56;19.68;88.12
68556;HTU21D;55544;51.032;5.866;2023-10-13T03:30:22;19.74;87.89
68556;HTU21D;55544;51.032;5.866;2023-10-13T03:32:56;19.76;87.64
68556;HTU21D;55544;51.032;5.866;2023-10-13T03:35:22;19.79;87.57
68556;HTU21D;55544;51.032;5.866;2023-10-13T03:37:54;19.81;87.59
68556;HTU21D;55544;51.032;5.866;2023-10-13T03:40:21;19.83;87.32
68556;HTU21D;55544;51.032;5.866;2023-10-13T03:42:56;19.85;87.30
68556;HTU21D;55544;51.032;5.866;2023-10-13T03:45:25;19.73;87.97
68556;HTU21D;55544;51.032;5.866;2023-10-13T03:47:52;0.00;88.16
68556;HTU21D;55544;51.032;5.866;2023-10-13T03:50:21;19.62;88.68
68556;HTU21D;55544;51.032;5.866;2023-10-13T03:52:57;19.66;88.61
68556;HTU21D;55544;51.032;5.866;2023-10-13T03:55:27;19.59;89.02
68556;HTU21D;55544;51.032;5.866;2023-10-13T03:57:54;19.59;89.13
68556;HTU21D;55544;51.032;5.866;2023-10-13T04:00:20;19.66;88.92
68556;HTU21D;55544;51.032;5.866;2023-10-13T04:02:51;19.68;88.57
68556;HTU21D;55544;51.032;5.866;2023-10-13T04:05:33;19.68;88.87
68556;HTU21D;55544;51.032;5.866;2023-10-13T04:08:11;19.63;88.88
68556;HTU21D;55544;51.032;5.866;2023-10-13T04:10:43;19.51;89.59
68556;HTU21D;55544;51.032;5.866;2023-10-13T04:13:17;19.55;89.83
68556;HTU21D;55544;51.032;5.866;2023-10-13T04:16:01;19.61;89.44
68556;HTU21D;55544;51.032;5.866;2023-10-13T04:18:45;19.52;89.99
68556;HTU21D;55544;51.032;5.866;2023-10-13T04:24:51;19.62;89.50
68556;HTU21D;55544;51.032;5.866;2023-10-13T04:27:20;19.57;89.71
68556;HTU21D;55544;51.032;5.866;2023-10-13T04:30:06;19.63;90.43
68556;HTU21D;55544;51.032;5.866;2023-10-13T04:32:32;19.62;89.66
68556;HTU21D;55544;51.032;5.866;2023-10-13T04:35:04;19.66;0.00
68556;HTU21D;55544;51.032;5.866;2023-10-13T04:37:39;19.72;89.25
68556;HTU21D;55544;51.032;5.866;2023-10-13T04:40:26;19.72;89.24
68556;HTU21D;55544;51.032;5.866;2023-10-13T04:42:54;19.73;89.14
68556;HTU21D;55544;51.032;5.866;2023-10-13T04:45:25;19.84;88.65
68556;HTU21D;55544;51.032;5.866;2023-10-13T04:47:58;19.82;88.64
68556;HTU21D;55544;51.032;5.866;2023-10-13T04:50:47;19.79;88.98
68556;HTU21D;55544;51.032;5.866;2023-10-13T04:53:17;19.82;88.98
68556;HTU21D;55544;51.032;5.866;2023-10-13T04:55:53;19.82;88.77
68556;HTU21D;55544;51.032;5.866;2023-10-13T04:58:42;19.80;89.12
68556;HTU21D;55544;51.032;5.866;2023-10-13T05:01:27;19.77;89.34
68556;HTU21D;55544;51.032;5.866;2023-10-13T05:03:53;19.77;89.09
68556;HTU21D;55544;51.032;5.866;2023-10-13T05:06:19;19.75;89.25
68556;HTU21D;55544;51.032;5.866;2023-10-13T05:09:04;19.87;89.09
68556;HTU21D;55544;51.032;5.866;2023-10-13T05:11:48;19.89;88.69
68556;HTU21D;55544;51.032;5.866;2023-10-13T05:14:32;19.86;88.64
68556;HTU21D;55544;51.032;5.866;2023-10-13T05:17:21;19.85;88.78
68556;HTU21D;55544;51.032;5.866;2023-10-13T05:20:06;19.80;89.00
68556;HTU21D;55544;51.032;5.866;2023-10-13T05:22:50;19.82;89.04
68556;HTU21D;55544;51.032;5.866;2023-10-13T05:25:36;19.83;89.09
68556;HTU21D;55544;51.032;5.866;2023-10-13T05:28:20;19.80;89.23
68556;HTU21D;55544;51.032;5.866;2023-10-13T05:31:05;19.84;89.50
68556;HTU21D;55544;51.032;5.866;2023-10-13T05:33:50;19.83;89.30
68556;HTU21D;55544;51.032;5.866;2023-10-13T05:36:34;19.84;89.36
68556;HTU21D;55544;51.032;5.866;2023-10-13T05:39:18;19.84;89.60
68556;HTU21D;55544;51.032;5.866;2023-10-13T05:42:03;19.82;89.49
68556;HTU21D;55544;51.032;5.866;2023-10-13T05:44:47;19.81;89.76
68556;HTU21D;55544;51.032;5.866;2023-10-13T05:47:42;19.85;89.34
68556;HTU21D;55544;51.032;5.866;2023-10-13T05:50:08;19.85;89.26
68556;HTU21D;55544;51.032;5.866;2023-10-13T05:52:49;19.84;89.10
68556;HTU21D;55544;51.032;5.866;2023-10-13T05:55:31;19.90;89.14
68556;HTU21D;55544;51.032;5.866;2023-10-13T05:58:16;19.85;88.98
68556;HTU21D;55544;51.032;5.866;2023-10-13T06:01:00;19.88;89.14
68556;HTU21D;55544;51.032;5.866;2023-10-13T06:03:45;19.80;89.43
68556;HTU21D;55544;51.032;5.866;2023-10-13T06:06:29;19.82;89.55
68556;HTU21D;55544;51.032;5.866;2023-10-13T06:09:13;19.76;89.51
68556;HTU21D;55544;51.032;5.866;2023-10-13T06:11:58;19.75;89.88
68556;HTU21D;55544;51.032;5.866;2023-10-13T06:14:45;19.77;0.00
68556;HTU21D;55544;51.032;5.866;2023-10-13T06:17:30;19.74;89.63
68556;HTU21D;55544;51.032;5.866;2023-10-13T06:20:30;19.69;90.01
68556;HTU21D;55544;51.032;5.866;2023-10-13T06:23:15;0.00;41.29
68556;HTU21D;55544;51.032;5.866;2023-10-13T06:25:59;19.72;89.95
68556;HTU21D;55544;51.032;5.866;2023-10-13T06:28:44;19.80;89.50
68556;HTU21D;55544;51.032;5.866;2023-10-13T06:31:12;19.77;89.67
68556;HTU21D;55544;51.032;5.866;2023-10-13T06:33:46;19.82;89.61
68556;HTU21D;55544;51.032;5.866;2023-10-13T06:36:13;19.80;89.34
68556;HTU21D;55544;51.032;5.866;2023-10-13T06:38:39;19.80;89.36
68556;HTU21D;55544;51.032;5.866;2023-10-13T06:41:05;19.82;89.41
68556;HTU21D;55544;51.032;5.866;2023-10-13T06:43:37;19.96;88.54
68556;HTU21D;55544;51.032;5.866;2023-10-13T06:46:09;19.97;88.64
68556;HTU21D;55544;51.032;5.866;2023-10-13T06:48:41;19.99;88.53
68556;HTU21D;55544;51.032;5.866;2023-10-13T06:51:07;20.02;88.18
68556;HTU21D;55544;51.032;5.866;2023-10-13T06:53:51;20.06;87.81
68556;HTU21D;55544;51.032;5.866;2023-10-13T06:56:22;20.10;87.38
68556;HTU21D;55544;51.032;5.866;2023-10-13T06:58:52;20.24;86.90
68556;HTU21D;55544;51.032;5.866;2023-10-13T07:01:28;20.24;86.80
68556;HTU21D;55544;51.032;5.866;2023-10-13T07:03:54;20.29;86.40
68556;HTU21D;55544;51.032;5.866;2023-10-13T07:06:21;20.26;86.52
68556;HTU21D;55544;51.032;5.866;2023-10-13T07:08:47;20.43;85.76
68556;HTU21D;55544;51.032;5.866;2023-10-13T07:11:24;20.45;85.37
68556;HTU21D;55544;51.032;5.866;2023-10-13T07:14:03;20.51;84.45
68556;HTU21D;55544;51.032;5.866;2023-10-13T07:16:54;20.50;85.03
68556;HTU21D;55544;51.032;5.866;2023-10-13T07:19:24;20.55;84.71
68556;HTU21D;55544;51.032;5.866;2023-10-13T07:21:57;20.54;83.16
68556;HTU21D;55544;51.032;5.866;2023-10-13T07:24:42;20.60;83.97
68556;HTU21D;55544;51.032;5.866;2023-10-13T07:27:08;20.72;83.58
68556;HTU21D;55544;51.032;5.866;2023-10-13T07:29:34;20.80;83.16
68556;HTU21D;55544;51.032;5.866;2023-10-13T07:32:02;20.93;82.07
68556;HTU21D;55544;51.032;5.866;2023-10-13T07:34:29;20.94;81.90
68556;HTU21D;55544;51.032;5.866;2023-10-13T07:36:58;21.01;80.55
68556;HTU21D;55544;51.032;5.866;2023-10-13T07:39:33;21.33;79.49
68556;HTU21D;55544;51.032;5.866;2023-10-13T07:42:00;21.91;77.28
68556;HTU21D;55544;51.032;5.866;2023-10-13T07:44:30;22.08;75.33
68556;HTU21D;55544;51.032;5.866;2023-10-13T07:47:00;21.97;75.87
68556;HTU21D;55544;51.032;5.866;2023-10-13T07:49:35;21.73;74.99
68556;HTU21D;55544;51.032;5.866;2023-10-13T07:52:05;21.55;75.47
68556;HTU21D;55544;51.032;5.866;2023-10-13T07:54:52;21.64;75.49
68556;HTU21D;55544;51.032;5.866;2023-10-13T07:57:50;21.80;75.41
68556;HTU21D;55544;51.032;5.866;2023-10-13T08:00:23;21.79;75.55
68556;HTU21D;55544;51.032;5.866;2023-10-13T08:03:21;21.82;74.66
68556;HTU21D;55544;51.032;5.866;2023-10-13T08:06:07;21.95;73.41
68556;HTU21D;55544;51.032;5.866;2023-10-13T08:08:46;21.87;73.43
68556;HTU21D;55544;51.032;5.866;2023-10-13T08:11:17;21.80;74.00
68556;HTU21D;55544;51.032;5.866;2023-10-13T08:13:53;21.78;73.88
68556;HTU21D;55544;51.032;5.866;2023-10-13T08:16:31;21.90;73.15
68556;HTU21D;55544;51.032;5.866;2023-10-13T08:19:27;22.02;72.41
68556;HTU21D;55544;51.032;5.866;2023-10-13T08:21:55;22.09;71.87
68556;HTU21D;55544;51.032;5.866;2023-10-13T08:24:25;22.10;71.34
68556;HTU21D;55544;51.032;5.866;2023-10-13T08:27:04;22.17;70.66
68556;HTU21D;55544;51.032;5.866;2023-10-13T08:29:44;22.13;71.43
68556;HTU21D;55544;51.032;5.866;2023-10-13T08:32:22;22.22;69.56
68556;HTU21D;55544;51.032;5.866;2023-10-13T08:35:02;22.14;70.59
68556;HTU21D;55544;51.032;5.866;2023-10-13T08:37:34;22.36;70.05
68556;HTU21D;55544;51.032;5.866;2023-10-13T08:40:15;22.43;69.02
68556;HTU21D;55544;51.032;5.866;2023-10-13T08:42:44;22.43;68.99
68556;HTU21D;55544;51.032;5.866;2023-10-13T08:45:12;22.49;68.90
68556;HTU21D;55544;51.032;5.866;2023-10-13T08:48:11;22.48;67.84
68556;HTU21D;55544;51.032;5.866;2023-10-13T08:50:49;22.53;68.12
68556;HTU21D;55544;51.032;5.866;2023-10-13T08:53:16;22.73;67.91
68556;HTU21D;55544;51.032;5.866;2023-10-13T08:56:05;22.85;67.84
68556;HTU21D;55544;51.032;5.866;2023-10-13T08:58:45;22.79;67.50
68556;HTU21D;55544;51.032;5.866;2023-10-13T09:04:04;22.72;66.69
68556;HTU21D;55544;51.032;5.866;2023-10-13T09:06:55;22.80;67.20
68556;HTU21D;55544;51.032;5.866;2023-10-13T09:15:12;23.36;66.12
68556;HTU21D;55544;51.032;5.866;2023-10-13T09:17:56;23.29;66.04
68556;HTU21D;55544;51.032;5.866;2023-10-13T09:20:41;23.17;63.07
68556;HTU21D;55544;51.032;5.866;2023-10-13T09:23:15;23.36;64.69
68556;HTU21D;55544;51.032;5.866;2023-10-13T09:25:51;23.32;65.69
68556;HTU21D;55544;51.032;5.866;2023-10-13T09:28:23;23.42;65.23
68556;HTU21D;55544;51.032;5.866;2023-10-13T09:30:53;23.37;65.33
68556;HTU21D;55544;51.032;5.866;2023-10-13T09:33:23;23.44;64.48
68556;HTU21D;55544;51.032;5.866;2023-10-13T09:35:59;23.34;64.39
68556;HTU21D;55544;51.032;5.866;2023-10-13T09:38:28;23.39;64.64
68556;HTU21D;55544;51.032;5.866;2023-10-13T09:40:54;23.39;65.13
68556;HTU21D;55544;51.032;5.866;2023-10-13T09:43:24;23.47;64.74
68556;HTU21D;55544;51.032;5.866;2023-10-13T09:45:58;23.54;65.07
68556;HTU21D;55544;51.032;5.866;2023-10-13T09:48:45;23.67;63.93
68556;HTU21D;55544;51.032;5.866;2023-10-13T09:51:16;23.56;64.21
68556;HTU21D;55544;51.032;5.866;2023-10-13T09:56:40;23.54;62.90
68556;HTU21D;55544;51.032;5.866;2023-10-13T09:59:27;23.44;62.58
68556;HTU21D;55544;51.032;5.866;2023-10-13T10:02:10;23.37;63.82
68556;HTU21D;55544;51.032;5.866;2023-10-13T10:04:51;23.45;64.16
68556;HTU21D;55544;51.032;5.866;2023-10-13T10:07:28;23.65;63.79
68556;HTU21D;55544;51.032;5.866;2023-10-13T10:10:00;23.92;62.21
68556;HTU21D;55544;51.032;5.866;2023-10-13T10:17:41;23.77;62.66
68556;HTU21D;55544;51.032;5.866;2023-10-13T10:20:08;23.83;62.60
68556;HTU21D;55544;51.032;5.866;2023-10-13T10:22:41;23.96;62.30
68556;HTU21D;55544;51.032;5.866;2023-10-13T10:25:13;23.94;60.93
68556;HTU21D;55544;51.032;5.866;2023-10-13T10:27:59;24.02;62.10
68556;HTU21D;55544;51.032;5.866;2023-10-13T10:30:29;24.09;62.17
68556;HTU21D;55544;51.032;5.866;2023-10-13T10:32:59;24.13;61.69
68556;HTU21D;55544;51.032;5.866;2023-10-13T10:35:27;24.14;61.85
68556;HTU21D;55544;51.032;5.866;2023-10-13T10:38:13;24.16;61.47
68556;HTU21D;55544;51.032;5.866;2023-10-13T10:40:54;24.21;61.51
68556;HTU21D;55544;51.032;5.866;2023-10-13T10:43:27;24.38;60.80
68556;HTU21D;55544;51.032;5.866;2023-10-13T10:45:55;24.28;60.05
68556;HTU21D;55544;51.032;5.866;2023-10-13T10:48:26;24.23;60.42
68556;HTU21D;55544;51.032;5.866;2023-10-13T10:51:00;24.08;60.73
68556;HTU21D;55544;51.032;5.866;2023-10-13T10:53:34;24.06;60.36
68556;HTU21D;55544;51.032;5.866;2023-10-13T10:56:11;24.05;60.46
68556;HTU21D;55544;51.032;5.866;2023-10-13T10:59:01;24.05;61.01
68556;HTU21D;55544;51.032;5.866;2023-10-13T11:01:31;24.03;60.76
68556;HTU21D;55544;51.032;5.866;2023-10-13T11:04:13;23.99;61.12
68556;HTU21D;55544;51.032;5.866;2023-10-13T11:11:50;23.99;60.66
68556;HTU21D;55544;51.032;5.866;2023-10-13T11:14:26;24.14;60.85
68556;HTU21D;55544;51.032;5.866;2023-10-13T11:16:54;24.27;60.79
68556;HTU21D;55544;51.032;5.866;2023-10-13T11:19:40;24.61;60.12
68556;HTU21D;55544;51.032;5.866;2023-10-13T11:22:24;24.98;58.50
68556;HTU21D;55544;51.032;5.866;2023-10-13T11:25:03;25.21;58.65
68556;HTU21D;55544;51.032;5.866;2023-10-13T11:27:39;25.29;58.35
68556;HTU21D;55544;51.032;5.866;2023-10-13T11:30:17;25.24;57.39
68556;HTU21D;55544;51.032;5.866;2023-10-13T11:33:17;25.05;57.39
68556;HTU21D;55544;51.032;5.866;2023-10-13T11:35:50;24.82;57.87
68556;HTU21D;55544;51.032;5.866;2023-10-13T11:38:28;24.89;57.83
68556;HTU21D;55544;51.032;5.866;2023-10-13T11:41:01;24.77;57.74
68556;HTU21D;55544;51.032;5.866;2023-10-13T11:43:35;24.71;58.45
68556;HTU21D;55544;51.032;5.866;2023-10-13T11:46:23;24.83;57.61
68556;HTU21D;55544;51.032;5.866;2023-10-13T11:49:08;24.86;57.97
68556;HTU21D;55544;51.032;5.866;2023-10-13T11:51:40;24.90;57.78
68556;HTU21D;55544;51.032;5.866;2023-10-13T11:54:14;24.97;57.52
68556;HTU21D;55544;51.032;5.866;2023-10-13T11:56:44;25.01;57.10
68556;HTU21D;55544;51.032;5.866;2023-10-13T11:59:11;24.93;57.78
68556;HTU21D;55544;51.032;5.866;2023-10-13T12:01:51;24.99;56.87
68556;HTU21D;55544;51.032;5.866;2023-10-13T12:04:36;25.03;55.43
68556;HTU21D;55544;51.032;5.866;2023-10-13T12:07:21;25.10;55.84
68556;HTU21D;55544;51.032;5.866;2023-10-13T12:09:51;25.16;55.10
68556;HTU21D;55544;51.032;5.866;2023-10-13T12:12:27;25.12;55.26
68556;HTU21D;55544;51.032;5.866;2023-10-13T12:14:54;25.00;55.80
68556;HTU21D;55544;51.032;5.866;2023-10-13T12:17:27;24.89;55.61
68556;HTU21D;55544;51.032;5.866;2023-10-13T12:19:57;24.85;56.10
68556;HTU21D;55544;51.032;5.866;2023-10-13T12:22:25;24.71;56.78
68556;HTU21D;55544;51.032;5.866;2023-10-13T12:24:54;24.72;56.55
68556;HTU21D;55544;51.032;5.866;2023-10-13T12:27:20;24.56;56.83
68556;HTU21D;55544;51.032;5.866;2023-10-13T12:29:51;24.57;56.13
68556;HTU21D;55544;51.032;5.866;2023-10-13T12:32:22;24.58;56.44
68556;HTU21D;55544;51.032;5.866;2023-10-13T12:34:50;24.66;54.57
68556;HTU21D;55544;51.032;5.866;2023-10-13T12:37:27;24.87;54.42
68556;HTU21D;55544;51.032;5.866;2023-10-13T12:40:13;25.24;54.07
68556;HTU21D;55544;51.032;5.866;2023-10-13T12:42:57;25.56;55.08
68556;HTU21D;55544;51.032;5.866;2023-10-13T12:45:44;25.87;53.39
68556;HTU21D;55544;51.032;5.866;2023-10-13T12:48:29;25.98;52.16
68556;HTU21D;55544;51.032;5.866;2023-10-13T12:51:14;25.98;52.50
68556;HTU21D;55544;51.032;5.866;2023-10-13T12:56:14;25.94;50.65
68556;HTU21D;55544;51.032;5.866;2023-10-13T12:58:40;25.82;50.41
68556;HTU21D;55544;51.032;5.866;2023-10-13T13:01:06;25.68;51.30
68556;HTU21D;55544;51.032;5.866;2023-10-13T13:03:32;25.69;51.92
68556;HTU21D;55544;51.032;5.866;2023-10-13T13:05:58;25.64;52.44
68556;HTU21D;55544;51.032;5.866;2023-10-13T13:08:24;25.47;52.78
68556;HTU21D;55544;51.032;5.866;2023-10-13T13:10:50;25.31;53.11
68556;HTU21D;55544;51.032;5.866;2023-10-13T13:13:17;25.18;53.38
68556;HTU21D;55544;51.032;5.866;2023-10-13T13:15:50;25.04;53.69
68556;HTU21D;55544;51.032;5.866;2023-10-13T13:18:16;25.02;53.49
68556;HTU21D;55544;51.032;5.866;2023-10-13T13:20:41;24.97;54.00
68556;HTU21D;55544;51.032;5.866;2023-10-13T13:23:19;24.93;53.92
68556;HTU21D;55544;51.032;5.866;2023-10-13T13:25:45;24.77;54.21
68556;HTU21D;55544;51.032;5.866;2023-10-13T13:28:11;24.72;54.33
68556;HTU21D;55544;51.032;5.866;2023-10-13T13:30:38;24.62;54.09
68556;HTU21D;55544;51.032;5.866;2023-10-13T13:33:05;24.64;53.72
68556;HTU21D;55544;51.032;5.866;2023-10-13T13:35:38;24.54;54.39
68556;HTU21D;55544;51.032;5.866;2023-10-13T13:38:04;24.45;54.54
68556;HTU21D;55544;51.032;5.866;2023-10-13T13:40:37;24.43;53.81
68556;HTU21D;55544;51.032;5.866;2023-10-13T13:43:04;24.39;54.17
68556;HTU21D;55544;51.032;5.866;2023-10-13T13:45:30;24.43;53.80
68556;HTU21D;55544;51.032;5.866;2023-10-13T13:47:57;24.41;53.46
68556;HTU21D;55544;51.032;5.866;2023-10-13T13:50:25;24.32;54.13
68556;HTU21D;55544;51.032;5.866;2023-10-13T13:52:58;24.24;54.73
68556;HTU21D;55544;51.032;5.866;2023-10-13T13:55:25;24.27;54.85
68556;HTU21D;55544;51.032;5.866;2023-10-13T13:57:57;24.21;54.94
68556;HTU21D;55544;51.032;5.866;2023-10-13T14:00:24;24.27;54.52
68556;HTU21D;55544;51.032;5.866;2023-10-13T14:03:14;24.14;54.83
68556;HTU21D;55544;51.032;5.866;2023-10-13T14:05:58;24.12;54.95
68556;HTU21D;55544;51.032;5.866;2023-10-13T14:08:25;24.04;55.24
68556;HTU21D;55544;51.032;5.866;2023-10-13T14:10:51;23.98;54.75
68556;HTU21D;55544;51.032;5.866;2023-10-13T14:13:36;23.97;55.04
68556;HTU21D;55544;51.032;5.866;2023-10-13T14:16:37;23.97;54.78
68556;HTU21D;55544;51.032;5.866;2023-10-13T14:19:02;23.92;54.68
68556;HTU21D;55544;51.032;5.866;2023-10-13T14:21:33;23.99;54.60
68556;HTU21D;55544;51.032;5.866;2023-10-13T14:24:00;23.85;54.78
68556;HTU21D;55544;51.032;5.866;2023-10-13T14:26:27;23.89;54.61
68556;HTU21D;55544;51.032;5.866;2023-10-13T14:28:55;23.80;55.31
68556;HTU21D;55544;51.032;5.866;2023-10-13T14:31:50;23.82;54.94
68556;HTU21D;55544;51.032;5.866;2023-10-13T14:34:15;23.88;54.14
68556;HTU21D;55544;51.032;5.866;2023-10-13T14:36:41;23.82;54.24
68556;HTU21D;55544;51.032;5.866;2023-10-13T14:39:14;23.75;54.32
68556;HTU21D;55544;51.032;5.866;2023-10-13T14:41:40;23.77;54.04
68556;HTU21D;55544;51.032;5.866;2023-10-13T14:44:06;23.77;54.44
68556;HTU21D;55544;51.032;5.866;2023-10-13T14:46:33;23.77;54.38
68556;HTU21D;55544;51.032;5.866;2023-10-13T14:49:02;23.60;54.54
68556;HTU21D;55544;51.032;5.866;2023-10-13T14:51:28;23.62;54.90
68556;HTU21D;55544;51.032;5.866;2023-10-13T14:53:55;23.64;54.71
68556;HTU21D;55544;51.032;5.866;2023-10-13T14:56:27;23.65;54.91
68556;HTU21D;55544;51.032;5.866;2023-10-13T14:58:54;23.68;55.07
68556;HTU21D;55544;51.032;5.866;2023-10-13T15:01:22;23.59;55.57
68556;HTU21D;55544;51.032;5.866;2023-10-13T15:03:51;23.53;56.19
68556;HTU21D;55544;51.032;5.866;2023-10-13T15:06:27;23.46;56.49
68556;HTU21D;55544;51.032;5.866;2023-10-13T15:08:57;23.47;56.04
68556;HTU21D;55544;51.032;5.866;2023-10-13T15:11:24;23.49;56.11
68556;HTU21D;55544;51.032;5.866;2023-10-13T15:14:05;23.52;55.23
68556;HTU21D;55544;51.032;5.866;2023-10-13T15:16:32;23.50;55.70
68556;HTU21D;55544;51.032;5.866;2023-10-13T15:19:01;23.47;56.00
68556;HTU21D;55544;51.032;5.866;2023-10-13T15:21:30;23.49;55.98
68556;HTU21D;55544;51.032;5.866;2023-10-13T15:24:01;23.53;55.84
68556;HTU21D;55544;51.032;5.866;2023-10-13T15:26:30;23.56;55.52
68556;HTU21D;55544;51.032;5.866;2023-10-13T15:28:59;23.49;55.82
68556;HTU21D;55544;51.032;5.866;2023-10-13T15:31:26;23.51;56.07
68556;HTU21D;55544;51.032;5.866;2023-10-13T15:33:55;23.47;56.26
68556;HTU21D;55544;51.032;5.866;2023-10-13T15:36:24;23.51;55.68
68556;HTU21D;55544;51.032;5.866;2023-10-13T15:38:50;23.51;55.42
68556;HTU21D;55544;51.032;5.866;2023-10-13T15:41:24;23.42;55.97
68556;HTU21D;55544;51.032;5.866;2023-10-13T15:43:50;23.40;56.45
68556;HTU21D;55544;51.032;5.866;2023-10-13T15:46:19;23.30;56.80
68556;HTU21D;55544;51.032;5.866;2023-10-13T15:48:51;23.31;56.84
68556;HTU21D;55544;51.032;5.866;2023-10-13T15:51:19;23.27;56.65
68556;HTU21D;55544;51.032;5.866;2023-10-13T15:53:45;23.26;57.48
68556;HTU21D;55544;51.032;5.866;2023-10-13T15:56:14;23.28;57.35
68556;HTU21D;55544;51.032;5.866;2023-10-13T15:58:49;23.16;57.35
68556;HTU21D;55544;51.032;5.866;2023-10-13T16:01:16;23.14;57.19
68556;HTU21D;55544;51.032;5.866;2023-10-13T16:03:43;23.10;57.34
68556;HTU21D;55544;51.032;5.866;2023-10-13T16:06:13;23.10;57.27
68556;HTU21D;55544;51.032;5.866;2023-10-13T16:08:39;23.05;57.62
68556;HTU21D;55544;51.032;5.866;2023-10-13T16:11:10;23.01;57.56
68556;HTU21D;55544;51.032;5.866;2023-10-13T16:13:40;23.03;57.48
68556;HTU21D;55544;51.032;5.866;2023-10-13T16:16:06;22.97;57.31
68556;HTU21D;55544;51.032;5.866;2023-10-13T16:18:32;23.00;57.32
68556;HTU21D;55544;51.032;5.866;2023-10-13T16:21:01;23.01;57.64
68556;HTU21D;55544;51.032;5.866;2023-10-13T16:23:31;23.08;57.71
68556;HTU21D;55544;51.032;5.866;2023-10-13T16:25:57;23.02;57.59